Time;durP1;ratioP1;P1;durP2;ratioP2;P2;SDS_P1;SDS_P2;PMS_P1;PMS_P2;Temp;Humidity;BMP_temperature;BMP_pressure;BME280_temperature;BME280_humidity;BME280_pressure;Samples;Min_cycle;Max_cycle;Signal;HPM_P1;HPM_P2
2023/05/08 00:02:25;;;;;;;14.77;13.47;;;;;;;17.42;100.00;101911.28;5299388;27;20779;-72
2023/05/08 00:04:56;;;;;;;15.03;13.57;;;;;;;17.26;100.00;101915.03;5320643;27;20035;-71
2023/05/08 00:07:27;;;;;;;14.27;13.07;;;;;;;17.21;100.00;101918.97;5299429;27;20754;-72
2023/05/08 00:09:59;;;;;;;15.00;13.50;;;;;;;17.27;100.00;101929.97;5317187;27;20433;-72
2023/05/08 00:12:31;;;;;;;13.47;12.37;;;;;;;17.26;100.00;101943.34;5316981;27;20016;-72
2023/05/08 00:15:03;;;;;;;14.33;13.23;;;;;;;17.29;100.00;101932.50;5321938;27;20038;-72
2023/05/08 00:17:34;;;;;;;15.27;13.80;;;;;;;17.29;100.00;101925.44;5317401;27;20035;-72
2023/05/08 00:20:07;;;;;;;13.77;12.57;;;;;;;17.14;100.00;101930.00;5319881;27;20031;-72
2023/05/08 00:22:38;;;;;;;14.80;13.70;;;;;;;17.35;100.00;101921.47;5315983;27;20050;-72
2023/05/08 00:25:10;;;;;;;15.27;13.87;;;;;;;17.25;100.00;101913.34;5320302;27;20168;-72
2023/05/08 00:27:41;;;;;;;14.73;13.43;;;;;;;17.28;100.00;101922.88;5315608;27;20046;-72
2023/05/08 00:30:13;;;;;;;15.13;13.63;;;;;;;17.24;100.00;101919.63;5319248;27;20023;-72
2023/05/08 00:32:44;;;;;;;14.23;12.83;;;;;;;17.24;100.00;101913.47;5304626;27;20046;-71
2023/05/08 00:35:15;;;;;;;15.77;14.17;;;;;;;17.13;100.00;101911.56;5319646;27;20058;-72
2023/05/08 00:37:46;;;;;;;14.63;13.23;;;;;;;17.26;100.00;101919.50;5320275;27;20031;-71
2023/05/08 00:40:18;;;;;;;13.33;12.23;;;;;;;17.12;100.00;101926.59;5319289;27;20036;-71
2023/05/08 00:42:49;;;;;;;14.87;13.40;;;;;;;17.31;100.00;101927.97;5314269;27;20062;-71
2023/05/08 00:45:21;;;;;;;14.17;12.77;;;;;;;17.34;100.00;101922.44;5302144;27;20027;-71
2023/05/08 00:47:52;;;;;;;14.87;13.57;;;;;;;17.24;100.00;101913.47;5319088;27;20042;-72
2023/05/08 00:50:24;;;;;;;14.70;13.47;;;;;;;17.10;100.00;101912.66;5316817;27;20126;-71
2023/05/08 00:52:57;;;;;;;15.10;13.80;;;;;;;17.31;100.00;101920.03;5317590;27;20584;-72
2023/05/08 00:55:31;;;;;;;14.23;12.97;;;;;;;17.14;100.00;101914.09;5317888;27;20039;-72
2023/05/08 00:58:03;;;;;;;15.20;13.80;;;;;;;17.17;100.00;101908.59;5316999;27;20027;-72
2023/05/08 01:00:36;;;;;;;13.77;12.70;;;;;;;17.20;100.00;101912.84;5300204;28;20026;-72
2023/05/08 01:03:08;;;;;;;13.90;12.77;;;;;;;16.99;100.00;101910.72;5316385;28;20052;-71
2023/05/08 01:05:40;;;;;;;14.67;13.47;;;;;;;16.95;100.00;101905.78;5317663;28;20019;-72
2023/05/08 01:08:11;;;;;;;14.37;12.97;;;;;;;16.93;100.00;101905.88;5319162;28;20110;-72
2023/05/08 01:11:25;;;;;;;15.07;13.53;;;;;;;17.36;100.00;101907.28;5304418;28;20031;-72
2023/05/08 01:14:10;;;;;;;14.70;13.37;;;;;;;17.01;100.00;101913.25;5300159;28;20051;-72
2023/05/08 01:16:59;;;;;;;14.57;13.27;;;;;;;16.95;100.00;101913.72;5314256;28;20100;-72
2023/05/08 01:20:02;;;;;;;15.80;14.30;;;;;;;17.27;100.00;101907.94;5316268;28;20023;-72
2023/05/08 01:23:16;;;;;;;14.17;12.97;;;;;;;17.32;100.00;101904.97;5316657;28;20020;-72
2023/05/08 01:26:14;;;;;;;14.73;13.50;;;;;;;17.32;100.00;101905.81;5303833;28;20127;-73
2023/05/08 01:28:55;;;;;;;16.40;14.93;;;;;;;17.20;100.00;101896.09;5315796;28;20038;-72
2023/05/08 01:31:36;;;;;;;16.00;14.50;;;;;;;17.33;100.00;101906.66;5304410;28;20042;-72
2023/05/08 01:34:16;;;;;;;15.77;14.47;;;;;;;17.25;100.00;101904.56;5299850;28;20064;-73
2023/05/08 01:37:00;;;;;;;15.23;13.93;;;;;;;17.30;100.00;101907.72;5298066;28;20032;-72
2023/05/08 01:40:03;;;;;;;14.82;13.52;;;;;;;17.44;100.00;101911.19;5316756;28;20043;-73
2023/05/08 01:42:49;;;;;;;16.00;14.60;;;;;;;17.24;100.00;101911.69;5300316;28;20027;-72
2023/05/08 01:45:38;;;;;;;16.23;14.93;;;;;;;17.28;100.00;101893.75;5316747;28;20042;-72
2023/05/08 01:48:14;;;;;;;16.47;15.10;;;;;;;17.13;100.00;101901.84;5318073;28;20587;-72
2023/05/08 01:50:48;;;;;;;16.83;15.43;;;;;;;16.98;100.00;101898.47;5317630;28;20032;-73
2023/05/08 01:53:35;;;;;;;16.95;15.30;;;;;;;17.22;100.00;101904.78;5318482;28;20111;-72
2023/05/08 01:56:15;;;;;;;17.57;16.07;;;;;;;17.17;100.00;101905.94;5298269;28;20019;-72
2023/05/08 01:58:50;;;;;;;17.83;16.37;;;;;;;17.13;100.00;101901.00;5319673;28;20440;-72
2023/05/08 02:01:22;;;;;;;;;;;;;;;17.74;100.00;101904.59;5318470;28;20498;-72
2023/05/08 02:03:55;;;;;;;17.20;15.70;;;;;;;17.06;100.00;101913.78;5296439;28;19916;-72
2023/05/08 02:06:30;;;;;;;16.30;14.90;;;;;;;17.08;100.00;101913.66;5313838;27;20027;-72
2023/05/08 02:09:01;;;;;;;17.60;15.80;;;;;;;16.99;100.00;101912.53;5305906;27;20043;-72
2023/05/08 02:11:35;;;;;;;16.70;15.27;;;;;;;16.97;100.00;101914.41;5322422;27;20062;-72
2023/05/08 02:14:08;;;;;;;17.70;16.05;;;;;;;16.84;100.00;101920.59;5323155;27;20034;-72
2023/05/08 02:16:42;;;;;;;17.13;15.67;;;;;;;16.82;100.00;101919.84;5304136;27;20031;-72
2023/05/08 02:19:15;;;;;;;17.95;15.55;;;;;;;16.83;100.00;101925.97;5302134;27;20506;-72
2023/05/08 02:21:49;;;;;;;17.90;16.38;;;;;;;16.77;100.00;101927.25;5320655;27;20037;-72
2023/05/08 02:24:22;;;;;;;17.73;16.08;;;;;;;16.87;100.00;101923.03;5305864;27;20023;-72
2023/05/08 02:26:56;;;;;;;18.57;16.97;;;;;;;16.94;100.00;101923.44;5319106;27;20023;-72
2023/05/08 02:29:29;;;;;;;17.07;15.57;;;;;;;16.99;100.00;101928.41;5323151;27;20023;-72
2023/05/08 02:32:01;;;;;;;17.43;15.73;;;;;;;16.91;100.00;101924.47;5320383;27;20039;-72
2023/05/08 02:34:35;;;;;;;17.37;15.77;;;;;;;16.79;100.00;101930.66;5322404;27;20110;-72
2023/05/08 02:37:06;;;;;;;17.67;15.87;;;;;;;16.82;100.00;101914.56;5318190;27;20035;-72
2023/05/08 02:39:40;;;;;;;17.80;16.30;;;;;;;16.77;100.00;101932.56;5305328;27;20035;-71
2023/05/08 02:42:11;;;;;;;18.50;16.85;;;;;;;16.82;100.00;101922.50;5302058;28;20026;-71
2023/05/08 02:44:43;;;;;;;18.77;17.07;;;;;;;16.80;100.00;101924.41;5318948;27;20887;-72
2023/05/08 02:47:22;;;;;;;19.27;17.60;;;;;;;16.91;100.00;101923.66;5325200;27;20024;-71
2023/05/08 02:50:02;;;;;;;18.27;16.73;;;;;;;16.76;100.00;101930.84;5303731;27;20024;-72
2023/05/08 02:52:41;;;;;;;18.10;16.60;;;;;;;16.81;100.00;101928.72;5319413;27;20031;-72
2023/05/08 02:55:31;;;;;;;18.70;17.10;;;;;;;17.01;100.00;101921.19;5321089;27;20043;-72
2023/05/08 02:58:13;;;;;;;17.97;16.23;;;;;;;17.07;100.00;101922.56;5319737;27;20555;-72
2023/05/08 03:01:06;;;;;;;18.93;17.37;;;;;;;17.12;100.00;101910.72;5320997;27;20566;-71
2023/05/08 03:03:48;;;;;;;20.17;18.47;;;;;;;16.93;100.00;101914.63;5301343;27;20032;-72
2023/05/08 03:06:23;;;;;;;19.70;18.10;;;;;;;17.00;100.00;101917.69;5324098;27;20024;-72
2023/05/08 03:08:59;;;;;;;20.13;18.13;;;;;;;16.87;100.00;101920.38;5303514;27;20083;-72
2023/05/08 03:11:38;;;;;;;19.17;17.37;;;;;;;16.78;100.00;101916.56;5319236;27;21342;-72
2023/05/08 03:14:13;;;;;;;19.83;18.13;;;;;;;16.80;100.00;101927.03;5318773;27;20024;-72
2023/05/08 03:16:46;;;;;;;22.13;20.27;;;;;;;16.88;100.00;101924.69;5323993;27;20104;-72
2023/05/08 03:19:29;;;;;;;19.33;17.50;;;;;;;16.92;100.00;101915.59;5320016;27;20042;-70
2023/05/08 03:22:02;;;;;;;21.10;19.23;;;;;;;16.68;100.00;101919.00;5319026;27;20379;-70
2023/05/08 03:24:37;;;;;;;22.03;19.87;;;;;;;16.69;100.00;101909.25;5301499;27;20490;-71
2023/05/08 03:27:09;;;;;;;19.53;17.93;;;;;;;16.88;100.00;101910.63;5293312;27;20035;-71
2023/05/08 03:29:41;;;;;;;20.63;18.77;;;;;;;16.86;100.00;101916.03;5317773;27;20031;-72
2023/05/08 03:32:13;;;;;;;19.73;18.03;;;;;;;16.56;100.00;101914.56;5296931;27;20483;-72
2023/05/08 03:34:46;;;;;;;21.13;19.37;;;;;;;16.78;100.00;101919.22;5319275;27;20031;-71
2023/05/08 03:37:17;;;;;;;20.77;18.63;;;;;;;16.66;100.00;101912.97;5318699;27;20785;-72
2023/05/08 03:39:50;;;;;;;19.87;18.07;;;;;;;16.68;100.00;101915.50;5322452;27;20055;-71
2023/05/08 03:42:23;;;;;;;19.57;17.90;;;;;;;16.71;100.00;101911.78;5303844;27;20035;-71
2023/05/08 03:44:56;;;;;;;20.87;19.00;;;;;;;16.64;100.00;101911.38;5320335;27;20111;-72
2023/05/08 03:47:27;;;;;;;20.33;18.53;;;;;;;16.43;100.00;101909.25;5318281;27;20026;-72
2023/05/08 03:49:59;;;;;;;20.23;18.53;;;;;;;16.38;100.00;101903.44;5319753;27;20032;-72
2023/05/08 03:52:31;;;;;;;19.43;17.77;;;;;;;16.59;100.00;101903.78;5320093;27;20019;-72
2023/05/08 03:55:03;;;;;;;20.47;18.67;;;;;;;16.41;100.00;101912.00;5321058;27;20066;-73
2023/05/08 03:57:59;;;;;;;19.60;17.60;;;;;;;16.62;100.00;101911.50;5295488;28;20446;-72
2023/05/08 04:00:55;;;;;;;19.33;17.53;;;;;;;16.44;100.00;101903.88;5301455;27;20023;-72
2023/05/08 04:03:41;;;;;;;20.57;18.77;;;;;;;16.51;100.00;101901.63;5317127;27;20031;-72
2023/05/08 04:06:20;;;;;;;19.60;17.97;;;;;;;16.50;100.00;101915.81;5317062;27;20031;-71
2023/05/08 04:09:01;;;;;;;20.00;17.93;;;;;;;16.39;100.00;101908.63;5300497;27;20047;-72
2023/05/08 04:12:10;;;;;;;19.70;18.10;;;;;;;16.71;100.00;101917.94;5314346;27;20047;-72
2023/05/08 04:14:46;;;;;;;20.60;18.77;;;;;;;16.64;100.00;101917.53;5286446;27;20039;-72
2023/05/08 04:17:40;;;;;;;20.33;18.70;;;;;;;16.72;100.00;101924.09;5323335;27;20096;-71
2023/05/08 04:20:15;;;;;;;20.87;18.97;;;;;;;16.62;100.00;101923.84;5299673;27;20424;-71
2023/05/08 04:22:49;;;;;;;20.43;18.47;;;;;;;16.42;100.00;101920.78;5300378;27;20116;-71
2023/05/08 04:25:20;;;;;;;21.33;19.35;;;;;;;16.39;100.00;101923.66;5318794;27;20065;-72
2023/05/08 04:27:54;;;;;;;20.30;18.37;;;;;;;16.62;100.00;101923.84;5294912;27;20116;-72
2023/05/08 04:30:26;;;;;;;21.55;19.60;;;;;;;16.55;100.00;101924.28;5315532;27;20039;-72
2023/05/08 04:32:58;;;;;;;20.97;19.23;;;;;;;16.48;100.00;101922.19;5318151;27;20540;-72
2023/05/08 04:35:30;;;;;;;21.10;19.10;;;;;;;16.39;100.00;101921.00;5322194;27;20039;-72
2023/05/08 04:38:01;;;;;;;22.20;20.10;;;;;;;16.44;100.00;101932.94;5319828;27;20063;-72
2023/05/08 04:40:33;;;;;;;22.70;20.60;;;;;;;16.41;100.00;101929.66;5316044;27;20041;-72
2023/05/08 04:43:04;;;;;;;22.57;20.57;;;;;;;16.51;100.00;101933.38;5318309;27;20076;-72
2023/05/08 04:45:35;;;;;;;21.60;19.60;;;;;;;16.51;100.00;101935.19;5303506;27;20886;-72
2023/05/08 04:48:06;;;;;;;22.87;20.87;;;;;;;16.57;100.00;101940.91;5315472;27;20031;-72
2023/05/08 04:50:38;;;;;;;23.20;21.20;;;;;;;16.60;100.00;101942.47;5319522;27;20043;-72
2023/05/08 04:53:09;;;;;;;23.50;21.40;;;;;;;16.50;100.00;101942.25;5297695;27;20032;-73
2023/05/08 04:55:40;;;;;;;23.77;21.77;;;;;;;16.48;100.00;101938.06;5296290;28;20776;-73
2023/05/08 04:58:12;;;;;;;25.60;23.40;;;;;;;16.54;100.00;101949.06;5317823;27;20126;-72
2023/05/08 05:00:43;;;;;;;26.87;24.23;;;;;;;16.58;100.00;101947.03;5312653;28;20581;-73
2023/05/08 05:03:14;;;;;;;26.83;24.43;;;;;;;16.60;100.00;101953.06;5315320;28;20087;-72
2023/05/08 05:05:46;;;;;;;29.80;27.20;;;;;;;16.53;100.00;101952.63;5318200;28;20040;-72
2023/05/08 05:08:17;;;;;;;28.97;26.43;;;;;;;16.51;100.00;101959.00;5318284;28;20039;-72
2023/05/08 05:10:48;;;;;;;30.13;27.60;;;;;;;16.63;100.00;101954.66;5319096;28;20036;-72
2023/05/08 05:13:19;;;;;;;29.07;26.47;;;;;;;16.62;100.00;101960.88;5319112;28;20039;-72
2023/05/08 05:15:53;;;;;;;30.77;28.07;;;;;;;16.66;100.00;101967.66;5317956;28;20035;-72
2023/05/08 05:18:24;;;;;;;30.73;27.83;;;;;;;16.67;100.00;101970.19;5321424;28;20685;-72
2023/05/08 05:20:57;;;;;;;28.07;25.47;;;;;;;16.73;100.00;101971.59;5322581;28;20039;-72
2023/05/08 05:23:29;;;;;;;29.65;27.00;;;;;;;16.76;100.00;101973.16;5319809;28;20043;-72
2023/05/08 05:26:00;;;;;;;28.53;26.00;;;;;;;16.77;100.00;101974.88;5321136;28;20027;-72
2023/05/08 05:28:31;;;;;;;28.10;25.60;;;;;;;16.75;100.00;101977.63;5318739;28;20087;-72
2023/05/08 05:31:03;;;;;;;27.93;25.37;;;;;;;16.78;100.00;101980.06;5321962;28;20039;-72
2023/05/08 05:33:35;;;;;;;28.40;25.60;;;;;;;16.82;100.00;101978.06;5318813;28;20023;-73
2023/05/08 05:36:06;;;;;;;27.97;25.10;;;;;;;16.89;100.00;101984.63;5312747;28;20087;-72
2023/05/08 05:38:37;;;;;;;29.80;26.80;;;;;;;16.88;100.00;101982.06;5319902;28;20027;-72
2023/05/08 05:41:09;;;;;;;29.13;26.27;;;;;;;16.88;100.00;101985.56;5314859;27;20019;-72
2023/05/08 05:43:40;;;;;;;30.27;27.27;;;;;;;16.79;100.00;101971.16;5323541;27;20027;-73
2023/05/08 05:46:12;;;;;;;30.17;27.50;;;;;;;16.88;100.00;101985.56;5321788;27;20063;-72
2023/05/08 05:48:43;;;;;;;31.97;28.87;;;;;;;16.91;100.00;101981.88;5324874;27;20023;-72
2023/05/08 05:51:15;;;;;;;31.90;28.57;;;;;;;16.93;100.00;101986.09;5322931;27;20031;-71
2023/05/08 05:53:46;;;;;;;31.10;28.30;;;;;;;16.98;100.00;101992.88;5321503;27;20030;-72
2023/05/08 05:56:17;;;;;;;29.73;26.83;;;;;;;16.97;100.00;101991.16;5322122;27;20031;-71
2023/05/08 05:58:48;;;;;;;30.00;27.40;;;;;;;17.01;100.00;101987.34;5322669;27;20023;-72
2023/05/08 06:01:20;;;;;;;30.60;27.83;;;;;;;16.84;100.00;101985.88;5325768;27;20064;-72
2023/05/08 06:03:51;;;;;;;32.40;29.40;;;;;;;16.96;100.00;101990.34;5326176;27;20653;-72
2023/05/08 06:06:23;;;;;;;30.10;27.40;;;;;;;17.03;100.00;101993.41;5323856;27;20019;-72
2023/05/08 06:08:55;;;;;;;31.13;28.03;;;;;;;17.01;100.00;101996.16;5318608;27;20738;-72
2023/05/08 06:11:26;;;;;;;31.67;28.50;;;;;;;17.08;100.00;101999.22;5324589;27;20798;-72
2023/05/08 06:13:58;;;;;;;31.07;28.00;;;;;;;17.11;100.00;101993.72;5324917;27;20027;-72
2023/05/08 06:16:29;;;;;;;33.93;30.93;;;;;;;17.11;100.00;101992.88;5323487;27;20032;-72
2023/05/08 06:19:00;;;;;;;31.60;28.80;;;;;;;17.10;100.00;101992.06;5319773;27;20455;-73
2023/05/08 06:21:33;;;;;;;35.10;31.70;;;;;;;17.11;100.00;101999.03;5320716;27;20483;-72
2023/05/08 06:24:05;;;;;;;33.03;30.13;;;;;;;17.07;100.00;101997.50;5303035;27;20034;-73
2023/05/08 06:26:37;;;;;;;34.37;31.23;;;;;;;17.09;100.00;101989.50;5301370;27;20738;-72
2023/05/08 06:29:08;;;;;;;34.90;31.83;;;;;;;17.14;100.00;101990.88;5324136;27;20109;-72
2023/05/08 06:31:39;;;;;;;34.23;31.23;;;;;;;17.16;100.00;101999.56;5300006;27;20475;-73
2023/05/08 06:34:10;;;;;;;35.03;31.80;;;;;;;17.19;100.00;101992.34;5324032;27;20623;-72
2023/05/08 06:36:42;;;;;;;35.10;31.87;;;;;;;17.16;100.00;101996.91;5310953;27;20067;-72
2023/05/08 06:39:13;;;;;;;35.20;31.90;;;;;;;17.29;100.00;102004.84;5314735;27;20054;-72
2023/05/08 06:41:48;;;;;;;35.70;32.57;;;;;;;17.34;100.00;101999.22;5297092;27;20032;-72
2023/05/08 06:44:19;;;;;;;38.40;34.87;;;;;;;17.26;100.00;101999.75;5323308;27;20047;-72
2023/05/08 06:46:50;;;;;;;37.20;33.83;;;;;;;17.31;100.00;101998.59;5323442;27;20096;-71
2023/05/08 06:49:22;;;;;;;37.80;34.07;;;;;;;17.33;100.00;102002.81;5316877;27;20060;-71
2023/05/08 06:51:53;;;;;;;40.77;37.07;;;;;;;17.29;100.00;102011.94;5294650;27;20508;-72
2023/05/08 06:54:24;;;;;;;39.53;36.07;;;;;;;17.41;100.00;102016.38;5300684;27;20454;-72
2023/05/08 06:56:56;;;;;;;38.30;34.93;;;;;;;17.47;100.00;102012.41;5302519;27;20388;-72
2023/05/08 06:59:27;;;;;;;40.27;36.27;;;;;;;17.38;100.00;102015.75;5321418;27;20388;-72
2023/05/08 07:01:58;;;;;;;38.93;34.87;;;;;;;17.42;100.00;102020.69;5301457;27;20372;-71
2023/05/08 07:04:29;;;;;;;40.47;36.53;;;;;;;17.46;100.00;102023.13;5317390;27;20130;-72
2023/05/08 07:07:01;;;;;;;39.13;35.53;;;;;;;17.53;100.00;102027.91;5314295;27;20092;-72
2023/05/08 07:09:32;;;;;;;39.80;35.90;;;;;;;17.44;100.00;102022.41;5321451;27;20448;-72
2023/05/08 07:12:04;;;;;;;44.03;39.77;;;;;;;17.50;100.00;102024.63;5319960;27;20115;-72
2023/05/08 07:14:35;;;;;;;43.00;39.03;;;;;;;17.47;100.00;102030.97;5322617;27;20019;-73
2023/05/08 07:17:06;;;;;;;43.73;39.67;;;;;;;17.46;100.00;102026.63;5319072;27;20047;-70
2023/05/08 07:19:38;;;;;;;44.77;40.33;;;;;;;17.52;100.00;102026.19;5324678;27;20077;-72
2023/05/08 07:22:09;;;;;;;45.50;41.20;;;;;;;17.56;100.00;102021.50;5304380;27;20032;-71
2023/05/08 07:24:41;;;;;;;44.97;40.53;;;;;;;17.60;100.00;102028.31;5321338;27;20114;-72
2023/05/08 07:27:13;;;;;;;41.03;37.00;;;;;;;17.61;100.00;102023.84;5320686;27;20031;-71
2023/05/08 07:29:44;;;;;;;43.57;39.47;;;;;;;17.62;100.00;102023.75;5317999;27;20022;-71
2023/05/08 07:32:16;;;;;;;46.63;42.30;;;;;;;17.62;100.00;102022.88;5282294;27;20031;-72
2023/05/08 07:34:47;;;;;;;43.23;39.10;;;;;;;17.65;100.00;102020.88;5316956;27;20035;-71
2023/05/08 07:37:19;;;;;;;42.23;37.90;;;;;;;17.63;100.00;102029.88;5321773;27;20417;-71
2023/05/08 07:39:50;;;;;;;44.37;39.03;;;;;;;17.62;100.00;102021.09;5318356;27;21287;-74
2023/05/08 07:42:21;;;;;;;42.20;38.30;;;;;;;17.70;100.00;102025.00;5295560;27;20574;-71
2023/05/08 07:44:52;;;;;;;43.50;39.50;;;;;;;17.70;100.00;102014.41;5318824;27;20505;-72
2023/05/08 07:47:24;;;;;;;42.43;38.47;;;;;;;17.75;100.00;102015.75;5319954;27;20111;-72
2023/05/08 07:49:55;;;;;;;41.10;37.17;;;;;;;17.80;100.00;102014.59;5319420;27;20050;-69
2023/05/08 07:52:26;;;;;;;40.93;36.93;;;;;;;17.84;100.00;102016.88;5318886;27;20034;-71
2023/05/08 07:54:58;;;;;;;41.40;37.50;;;;;;;17.97;100.00;102016.00;5317061;27;20042;-70
2023/05/08 07:57:35;;;;;;;40.20;36.37;;;;;;;18.19;100.00;102009.13;5315865;27;20031;-69
2023/05/08 08:00:09;;;;;;;38.87;34.87;;;;;;;18.21;100.00;102025.78;5314974;27;20038;-70
2023/05/08 08:02:41;;;;;;;38.50;34.70;;;;;;;18.30;100.00;102022.47;5320223;27;20058;-69
2023/05/08 08:05:13;;;;;;;37.40;33.73;;;;;;;18.33;100.00;102008.97;5312281;27;20047;-69
2023/05/08 08:07:44;;;;;;;40.07;36.30;;;;;;;18.35;100.00;102020.31;5300335;27;20445;-71
2023/05/08 08:10:15;;;;;;;37.03;33.77;;;;;;;18.46;100.00;102016.84;5312488;27;20059;-69
2023/05/08 08:12:47;;;;;;;35.30;32.00;;;;;;;18.50;100.00;102020.94;5317850;27;20107;-69
2023/05/08 08:15:18;;;;;;;34.20;31.20;;;;;;;18.51;100.00;102024.47;5321186;27;20038;-72
2023/05/08 08:17:49;;;;;;;32.90;29.90;;;;;;;18.61;100.00;102020.16;5318489;27;20046;-69
2023/05/08 08:20:21;;;;;;;33.13;29.77;;;;;;;18.73;100.00;102017.50;5319821;27;20051;-71
2023/05/08 08:22:52;;;;;;;31.20;27.90;;;;;;;18.78;100.00;102023.31;5314758;27;20111;-71
2023/05/08 08:25:23;;;;;;;29.80;27.07;;;;;;;18.91;100.00;102019.72;5318087;27;20064;-71
2023/05/08 08:27:55;;;;;;;29.50;26.73;;;;;;;19.07;100.00;102022.03;5302550;27;20031;-71
2023/05/08 08:30:26;;;;;;;28.77;26.03;;;;;;;19.15;100.00;102021.50;5319546;27;20084;-71
2023/05/08 08:33:01;;;;;;;30.13;27.37;;;;;;;19.22;100.00;102018.22;5314351;27;20707;-70
2023/05/08 08:35:32;;;;;;;29.33;26.67;;;;;;;19.29;100.00;102013.25;5295839;27;21388;-71
2023/05/08 08:38:03;;;;;;;30.50;27.50;;;;;;;19.59;100.00;102013.59;5316168;27;20027;-73
2023/05/08 08:40:39;;;;;;;29.50;26.83;;;;;;;19.82;100.00;102014.41;5313930;27;20039;-74
2023/05/08 08:43:11;;;;;;;30.10;27.07;;;;;;;19.81;100.00;102006.56;5317400;27;20039;-71
2023/05/08 08:45:43;;;;;;;28.57;25.77;;;;;;;20.01;100.00;102006.72;5298469;27;20051;-71
2023/05/08 08:48:15;;;;;;;27.70;25.27;;;;;;;20.02;100.00;102014.56;5319323;27;20034;-72
2023/05/08 08:50:52;;;;;;;28.63;26.20;;;;;;;20.15;100.00;102009.13;5319127;27;20039;-72
2023/05/08 08:53:26;;;;;;;29.03;26.27;;;;;;;20.26;100.00;102021.56;5314745;27;20038;-72
2023/05/08 08:56:00;;;;;;;29.87;27.03;;;;;;;20.21;100.00;102030.88;5311643;28;21389;-71
2023/05/08 08:58:56;;;;;;;27.88;25.45;;;;;;;20.45;100.00;102009.38;5298085;28;20023;-71
2023/05/08 09:01:30;;;;;;;27.97;25.43;;;;;;;20.19;100.00;102015.88;5293245;28;20061;-73
2023/05/08 09:04:01;;;;;;;27.87;25.27;;;;;;;20.27;100.00;102019.72;5320474;28;20043;-72
2023/05/08 09:06:37;;;;;;;27.13;24.73;;;;;;;20.38;100.00;102024.16;5313838;28;20043;-73
2023/05/08 09:09:11;;;;;;;28.90;26.03;;;;;;;20.35;100.00;102027.06;5313825;28;20239;-74
2023/05/08 09:11:42;;;;;;;;;;;;;;;21.06;100.00;102027.41;5314476;28;20084;-74
2023/05/08 09:14:13;;;;;;;27.17;24.63;;;;;;;20.18;100.00;102021.31;5298612;28;19920;-73
2023/05/08 09:16:45;;;;;;;29.40;26.70;;;;;;;20.11;100.00;102031.63;5305646;27;20039;-73
2023/05/08 09:19:16;;;;;;;29.93;27.33;;;;;;;20.18;100.00;102021.31;5319828;27;20063;-72
2023/05/08 09:21:48;;;;;;;29.87;27.23;;;;;;;20.14;100.00;102025.22;5323596;27;20498;-72
2023/05/08 09:24:19;;;;;;;30.83;28.23;;;;;;;20.00;100.00;102021.81;5303532;27;20095;-72
2023/05/08 09:26:50;;;;;;;32.37;29.40;;;;;;;20.03;100.00;102023.41;5320322;27;20031;-71
2023/05/08 09:29:22;;;;;;;32.57;29.60;;;;;;;20.07;100.00;102020.38;5323064;27;20027;-71
2023/05/08 09:31:53;;;;;;;33.90;30.90;;;;;;;20.02;100.00;102022.56;5318128;27;20034;-71
2023/05/08 09:34:27;;;;;;;32.47;29.53;;;;;;;20.12;100.00;102019.19;5319971;27;20067;-72
2023/05/08 09:37:04;;;;;;;32.75;29.88;;;;;;;20.25;100.00;102024.31;5321373;27;20538;-71
2023/05/08 09:39:35;;;;;;;34.03;30.83;;;;;;;20.19;100.00;102020.38;5299003;27;20143;-72
2023/05/08 09:42:07;;;;;;;33.83;30.77;;;;;;;20.18;100.00;102016.00;5317725;27;20035;-72
2023/05/08 09:44:51;;;;;;;35.93;32.53;;;;;;;20.29;100.00;102020.44;5325023;27;20087;-74
2023/05/08 09:47:24;;;;;;;37.20;33.53;;;;;;;20.22;100.00;102025.44;5322318;27;20073;-73
2023/05/08 09:50:08;;;;;;;40.93;36.93;;;;;;;20.41;100.00;102023.88;5321525;27;20061;-73
2023/05/08 09:52:45;;;;;;;40.50;36.30;;;;;;;20.38;100.00;102022.34;5316352;27;20039;-73
2023/05/08 09:55:17;;;;;;;43.67;39.20;;;;;;;20.29;100.00;102026.63;5299392;27;20038;-71
2023/05/08 09:57:54;;;;;;;42.63;38.43;;;;;;;20.41;100.00;102024.75;5318805;27;20054;-72
2023/05/08 10:00:28;;;;;;;44.73;40.33;;;;;;;20.14;100.00;102019.91;5299947;27;20067;-73
2023/05/08 10:03:01;;;;;;;44.10;39.83;;;;;;;20.29;100.00;102031.06;5320173;27;20027;-73
2023/05/08 10:05:35;;;;;;;41.95;37.75;;;;;;;20.24;100.00;102031.47;5323532;27;20285;-72
2023/05/08 10:08:24;;;;;;;42.30;38.00;;;;;;;20.45;100.00;102027.13;5299023;28;20123;-71
2023/05/08 10:11:20;;;;;;;44.63;40.03;;;;;;;20.46;100.00;102029.66;5316804;27;20040;-71
2023/05/08 10:13:51;;;;;;;47.67;40.20;;;;;;;20.08;100.00;102034.53;5320687;27;20543;-72
2023/05/08 10:16:23;;;;;;;41.90;37.73;;;;;;;20.10;100.00;102037.94;5319334;27;20032;-72
2023/05/08 10:19:01;;;;;;;42.00;37.87;;;;;;;20.26;100.00;102032.19;5300187;27;20062;-72
2023/05/08 10:21:36;;;;;;;43.90;39.20;;;;;;;20.21;100.00;102034.38;5300349;27;20028;-71
2023/05/08 10:24:25;;;;;;;42.93;38.30;;;;;;;20.23;100.00;102035.09;5323415;27;20542;-71
2023/05/08 10:26:59;;;;;;;44.70;40.03;;;;;;;20.05;100.00;102034.81;5316639;27;20071;-71
2023/05/08 10:30:01;;;;;;;42.13;37.83;;;;;;;20.43;100.00;102035.25;5310424;27;20027;-71
2023/05/08 10:32:42;;;;;;;44.40;39.87;;;;;;;20.15;100.00;102034.88;5300222;27;20038;-72
2023/05/08 10:35:14;;;;;;;45.30;40.53;;;;;;;20.06;100.00;102037.31;5324813;27;20031;-72
2023/05/08 10:37:47;;;;;;;45.27;40.23;;;;;;;20.15;100.00;102033.06;5320078;27;20713;-71
2023/05/08 10:40:20;;;;;;;44.10;39.40;;;;;;;20.21;100.00;102031.72;5319893;27;20126;-70
2023/05/08 10:42:51;;;;;;;46.00;41.13;;;;;;;20.26;100.00;102032.19;5316753;27;20032;-71
2023/05/08 10:45:23;;;;;;;45.00;40.27;;;;;;;20.33;100.00;102027.19;5301292;27;20038;-72
2023/05/08 10:48:10;;;;;;;47.60;41.47;;;;;;;20.52;100.00;102031.81;5321208;27;20027;-72
2023/05/08 10:50:46;;;;;;;45.13;40.40;;;;;;;20.43;100.00;102033.44;5319317;27;20034;-72
2023/05/08 10:53:49;;;;;;;45.33;40.43;;;;;;;20.70;100.00;102025.06;5299762;27;20195;-72
2023/05/08 10:56:26;;;;;;;44.57;39.87;;;;;;;20.64;100.00;102013.13;5317523;27;20038;-72
2023/05/08 10:58:58;;;;;;;41.23;36.77;;;;;;;20.71;100.00;102013.44;5319415;27;20078;-72
2023/05/08 11:01:29;;;;;;;44.93;40.27;;;;;;;20.92;100.00;102008.09;5324063;27;20031;-72
2023/05/08 11:04:00;;;;;;;49.08;42.15;;;;;;;20.98;100.00;102015.59;5323435;27;20035;-74
2023/05/08 11:06:47;;;;;;;48.67;43.70;;;;;;;21.31;100.00;102015.44;5314454;27;20032;-73
2023/05/08 11:09:26;;;;;;;47.93;42.80;;;;;;;21.09;100.00;102012.00;5319980;27;20050;-73
2023/05/08 11:12:21;;;;;;;48.75;43.72;;;;;;;21.18;100.00;102010.34;5299512;27;20066;-72
2023/05/08 11:15:05;;;;;;;49.97;44.55;;;;;;;21.18;100.00;102010.34;5301809;27;20089;-73
2023/05/08 11:17:38;;;;;;;49.42;43.78;;;;;;;20.92;100.00;101992.97;5320067;27;20031;-74
2023/05/08 11:20:09;;;;;;;51.65;46.20;;;;;;;20.92;100.00;102002.78;5301386;27;20041;-73
2023/05/08 11:22:46;;;;;;;49.60;44.42;;;;;;;21.11;100.00;101999.41;5321327;27;20506;-73
2023/05/08 11:25:42;;;;;;;48.05;41.95;;;;;;;21.40;100.00;101997.78;5319378;27;20427;-73
2023/05/08 11:28:15;;;;;;;50.28;44.95;;;;;;;21.33;100.00;101986.03;5298057;27;20026;-74
2023/05/08 11:30:52;;;;;;;47.55;42.65;;;;;;;21.45;100.00;101992.91;5323277;27;20035;-73
2023/05/08 11:33:29;;;;;;;51.20;45.55;;;;;;;21.45;100.00;101982.25;5322660;27;20027;-75
2023/05/08 11:36:19;;;;;;;48.90;43.67;;;;;;;21.79;100.00;101994.41;5304450;27;20082;-74
2023/05/08 11:39:14;;;;;;;47.47;41.75;;;;;;;21.82;100.00;101974.66;5319935;27;20027;-73